createdAt,value
2022-09-22T00:03:41.269Z,8.30
2022-09-22T00:06:14.508Z,8.20
2022-09-22T00:08:44.937Z,8.20
2022-09-22T00:11:37.683Z,8.20
2022-09-22T00:14:13.014Z,8.10
2022-09-22T00:16:46.644Z,8.10
2022-09-22T00:19:25.652Z,8.10
2022-09-22T00:21:55.986Z,8.10
2022-09-22T00:24:26.511Z,8.00
2022-09-22T00:26:57.548Z,8.00
2022-09-22T00:29:26.049Z,8.00
2022-09-22T00:31:56.169Z,8.00
2022-09-22T00:34:26.756Z,8.00
2022-09-22T00:36:56.408Z,8.00
2022-09-22T00:39:24.384Z,7.90
2022-09-22T00:41:55.264Z,7.90
2022-09-22T00:44:40.287Z,7.90
2022-09-22T00:47:35.398Z,7.90
2022-09-22T00:50:19.674Z,7.90
2022-09-22T00:53:12.936Z,7.90
2022-09-22T00:56:01.538Z,7.80
2022-09-22T00:58:33.854Z,7.80
2022-09-22T01:01:05.579Z,7.80
2022-09-22T01:03:33.134Z,7.80
2022-09-22T01:06:05.923Z,7.80
2022-09-22T01:08:34.324Z,7.80
2022-09-22T01:11:02.130Z,7.80
2022-09-22T01:13:49.287Z,7.70
2022-09-22T01:16:53.936Z,7.70
2022-09-22T01:19:46.287Z,7.70
2022-09-22T01:22:23.737Z,7.70
2022-09-22T01:25:01.489Z,7.60
2022-09-22T01:28:20.139Z,7.60
2022-09-22T01:31:03.790Z,7.60
2022-09-22T01:34:04.475Z,7.60
2022-09-22T01:36:41.173Z,7.60
2022-09-22T01:39:39.270Z,7.60
2022-09-22T01:42:13.603Z,7.50
2022-09-22T01:44:50.729Z,7.60
2022-09-22T01:47:41.187Z,7.60
2022-09-22T01:50:16.589Z,7.50
2022-09-22T01:52:45.681Z,7.50
2022-09-22T01:55:22.036Z,7.50
2022-09-22T01:57:55.481Z,7.50
2022-09-22T02:00:27.386Z,7.50
2022-09-22T02:03:08.693Z,7.50
2022-09-22T02:05:49.752Z,7.50
2022-09-22T02:08:29.143Z,7.50
2022-09-22T02:11:01.212Z,7.40
2022-09-22T02:13:29.048Z,7.50
2022-09-22T02:16:02.423Z,7.40
2022-09-22T02:18:50.376Z,7.40
2022-09-22T02:21:18.828Z,7.40
2022-09-22T02:23:47.880Z,7.40
2022-09-22T02:26:26.782Z,7.30
2022-09-22T02:29:03.790Z,7.30
2022-09-22T02:31:34.522Z,7.30
2022-09-22T02:34:02.814Z,7.30
2022-09-22T02:36:55.318Z,7.30
2022-09-22T02:39:39.049Z,7.20
2022-09-22T02:42:24.875Z,7.20
2022-09-22T02:45:07.123Z,7.20
2022-09-22T02:47:37.468Z,7.20
2022-09-22T02:50:09.564Z,7.10
2022-09-22T02:52:38.458Z,7.10
2022-09-22T02:55:08.076Z,7.10
2022-09-22T02:57:35.835Z,7.10
2022-09-22T03:00:06.450Z,7.10
2022-09-22T03:02:33.665Z,7.10
2022-09-22T03:05:01.673Z,7.10
2022-09-22T03:07:28.953Z,7.10
2022-09-22T03:09:56.066Z,7.10
2022-09-22T03:12:27.147Z,7.00
2022-09-22T03:14:55.227Z,7.00
2022-09-22T03:17:25.823Z,7.00
2022-09-22T03:19:54.392Z,7.00
2022-09-22T03:22:24.231Z,7.00
2022-09-22T03:24:52.744Z,6.90
2022-09-22T03:27:20.112Z,6.90
2022-09-22T03:29:47.327Z,6.90
2022-09-22T03:32:14.279Z,6.90
2022-09-22T03:34:42.519Z,6.90
2022-09-22T03:37:10.014Z,6.80
2022-09-22T03:39:37.588Z,6.80
2022-09-22T03:42:04.962Z,6.80
2022-09-22T03:44:32.492Z,6.80
2022-09-22T03:47:00.496Z,6.80
2022-09-22T03:49:28.656Z,6.80
2022-09-22T03:51:57.076Z,6.70
2022-09-22T03:54:24.676Z,6.80
2022-09-22T03:56:52.216Z,6.70
2022-09-22T03:59:19.514Z,6.70
2022-09-22T04:01:47.809Z,6.70
2022-09-22T04:04:15.560Z,6.70
2022-09-22T04:06:43.175Z,6.70
2022-09-22T04:09:10.826Z,6.70
2022-09-22T04:11:38.197Z,6.70
2022-09-22T04:14:05.645Z,6.60
2022-09-22T04:16:33.141Z,6.70
2022-09-22T04:19:05.336Z,6.70
2022-09-22T04:21:33.060Z,6.60
2022-09-22T04:24:00.922Z,6.70
2022-09-22T04:26:28.480Z,6.60
2022-09-22T04:28:55.825Z,6.60
2022-09-22T04:31:25.308Z,6.60
2022-09-22T04:33:53.497Z,6.60
2022-09-22T04:36:20.857Z,6.60
2022-09-22T04:38:48.834Z,6.50
2022-09-22T04:41:16.173Z,6.50
2022-09-22T04:43:44.055Z,6.50
2022-09-22T04:46:13.209Z,6.50
2022-09-22T04:48:40.781Z,6.50
2022-09-22T04:51:08.070Z,6.50
2022-09-22T04:53:35.807Z,6.50
2022-09-22T04:56:02.969Z,6.50
2022-09-22T04:58:30.406Z,6.40
2022-09-22T05:01:03.581Z,6.40
2022-09-22T05:03:31.401Z,6.40
2022-09-22T05:05:59.583Z,6.40
2022-09-22T05:08:26.836Z,6.40
2022-09-22T05:10:56.857Z,6.40
2022-09-22T05:13:25.885Z,6.40
2022-09-22T05:15:59.988Z,6.40
2022-09-22T05:18:27.207Z,6.40
2022-09-22T05:20:55.452Z,6.40
2022-09-22T05:23:26.180Z,6.40
2022-09-22T05:25:55.040Z,6.40
2022-09-22T05:28:24.423Z,6.40
2022-09-22T05:30:53.948Z,6.40
2022-09-22T05:33:21.644Z,6.40
2022-09-22T05:35:50.248Z,6.40
2022-09-22T05:38:17.309Z,6.40
2022-09-22T05:40:48.012Z,6.40
2022-09-22T05:43:15.512Z,6.40
2022-09-22T05:45:44.819Z,6.40
2022-09-22T05:48:12.224Z,6.40
2022-09-22T05:50:39.896Z,6.40
2022-09-22T05:53:10.806Z,6.40
2022-09-22T05:55:39.789Z,6.40
2022-09-22T05:58:12.032Z,6.40
2022-09-22T06:00:41.085Z,6.40
2022-09-22T06:03:08.592Z,6.40
2022-09-22T06:05:38.589Z,6.50
2022-09-22T06:08:07.977Z,6.50
2022-09-22T06:10:36.847Z,6.50
2022-09-22T06:13:06.190Z,6.50
2022-09-22T06:15:35.842Z,6.60
2022-09-22T06:18:07.431Z,6.60
2022-09-22T06:20:38.492Z,6.60
2022-09-22T06:23:05.649Z,6.70
2022-09-22T06:25:33.015Z,6.80
2022-09-22T06:28:05.302Z,6.80
2022-09-22T06:30:34.918Z,6.80
2022-09-22T06:33:06.185Z,6.90
2022-09-22T06:35:43.307Z,6.90
2022-09-22T06:38:15.099Z,7.00
2022-09-22T06:40:43.444Z,7.10
2022-09-22T06:43:24.677Z,7.10
2022-09-22T06:45:53.532Z,7.20
2022-09-22T06:48:24.609Z,7.30
2022-09-22T06:50:54.809Z,7.40
2022-09-22T06:53:27.135Z,7.50
2022-09-22T06:55:54.956Z,7.60
2022-09-22T06:58:24.281Z,7.70
2022-09-22T07:00:53.816Z,7.80
2022-09-22T07:03:26.605Z,7.90
2022-09-22T07:06:01.452Z,8.00
2022-09-22T07:08:31.100Z,8.10
2022-09-22T07:11:02.469Z,8.20
2022-09-22T07:13:32.239Z,8.40
2022-09-22T07:16:01.670Z,8.50
2022-09-22T07:18:30.524Z,8.60
2022-09-22T07:21:12.388Z,8.80
2022-09-22T07:23:41.328Z,8.90
2022-09-22T07:26:16.211Z,9.00
2022-09-22T07:28:46.941Z,9.10
2022-09-22T07:31:15.435Z,9.20
2022-09-22T07:33:44.934Z,9.30
2022-09-22T07:36:19.473Z,9.50
2022-09-22T07:38:54.602Z,9.50
2022-09-22T07:41:43.339Z,9.70
2022-09-22T07:44:31.384Z,9.80
2022-09-22T07:47:00.197Z,9.90
2022-09-22T07:49:30.211Z,10.00
2022-09-22T07:51:58.220Z,10.10
2022-09-22T07:54:27.008Z,10.20
2022-09-22T07:57:04.699Z,10.30
2022-09-22T07:59:32.324Z,10.40
2022-09-22T08:02:00.278Z,10.50
2022-09-22T08:04:32.196Z,10.70
2022-09-22T08:06:59.336Z,10.70
2022-09-22T08:09:26.963Z,10.90
2022-09-22T08:11:55.346Z,11.00
2022-09-22T08:14:24.319Z,11.10
2022-09-22T08:16:54.089Z,11.30
2022-09-22T08:19:24.895Z,11.40
2022-09-22T08:21:54.688Z,11.50
2022-09-22T08:24:24.023Z,11.60
2022-09-22T08:26:56.553Z,11.70
2022-09-22T08:29:25.474Z,11.90
2022-09-22T08:31:54.448Z,12.00
2022-09-22T08:34:23.532Z,12.10
2022-09-22T08:36:50.737Z,12.30
2022-09-22T08:39:18.522Z,12.40
2022-09-22T08:41:48.417Z,12.50
2022-09-22T08:44:37.512Z,12.70
2022-09-22T08:47:06.139Z,12.80
2022-09-22T08:50:01.961Z,13.00
2022-09-22T08:52:41.105Z,13.20
2022-09-22T08:55:25.136Z,13.40
2022-09-22T08:58:23.619Z,13.60
2022-09-22T09:01:16.817Z,13.80
2022-09-22T09:04:11.382Z,14.10
2022-09-22T09:06:47.488Z,14.30
2022-09-22T09:09:27.274Z,14.50
2022-09-22T09:12:06.933Z,14.80
2022-09-22T09:14:59.147Z,15.00
2022-09-22T09:17:33.804Z,15.20
2022-09-22T09:20:17.680Z,15.40
2022-09-22T09:22:56.249Z,15.70
2022-09-22T09:25:39.094Z,15.90
2022-09-22T09:28:13.479Z,16.20
2022-09-22T09:30:52.431Z,16.40
2022-09-22T09:33:38.288Z,16.70
2022-09-22T09:38:50.957Z,17.20
2022-09-22T09:41:31.891Z,17.40
2022-09-22T09:44:00.545Z,17.60
2022-09-22T09:47:11.795Z,17.90
2022-09-22T09:49:39.090Z,18.00
2022-09-22T09:52:14.977Z,18.20
2022-09-22T09:54:44.361Z,18.40
2022-09-22T09:57:14.148Z,18.60
2022-09-22T10:00:02.440Z,18.90
2022-09-22T10:13:06.284Z,19.30
2022-09-22T10:15:39.422Z,20.10
2022-09-22T10:18:27.088Z,20.20
2022-09-22T10:21:07.482Z,20.40
2022-09-22T10:23:35.013Z,20.50
2022-09-22T10:26:26.657Z,20.70
2022-09-22T10:29:12.958Z,20.80
2022-09-22T10:31:42.152Z,20.90
2022-09-22T10:34:49.805Z,21.00
2022-09-22T10:37:30.624Z,21.10
2022-09-22T10:40:03.767Z,21.30
2022-09-22T10:42:43.875Z,21.50
2022-09-22T10:45:14.259Z,21.50
2022-09-22T10:48:00.393Z,21.40
2022-09-22T10:50:48.994Z,21.70
2022-09-22T10:53:32.726Z,21.90
2022-09-22T10:56:15.598Z,22.00
2022-09-22T10:59:02.553Z,22.10
2022-09-22T11:01:55.152Z,22.10
2022-09-22T11:04:25.648Z,22.10
2022-09-22T11:07:35.966Z,22.10
2022-09-22T11:10:41.668Z,22.20
2022-09-22T11:13:42.128Z,22.40
2022-09-22T11:16:35.319Z,22.50
2022-09-22T11:19:14.786Z,22.80
2022-09-22T11:21:54.538Z,23.20
2022-09-22T11:25:00.660Z,23.50
2022-09-22T11:35:23.457Z,23.80
2022-09-22T11:38:14.182Z,24.00
2022-09-22T11:41:02.015Z,24.00
2022-09-22T11:46:33.599Z,24.50
2022-09-22T11:49:13.162Z,24.50
2022-09-22T11:54:15.293Z,24.60
2022-09-22T11:56:47.166Z,24.80
2022-09-22T11:59:43.656Z,25.10
2022-09-22T12:02:20.613Z,25.10
2022-09-22T12:05:12.107Z,25.00
2022-09-22T12:07:48.431Z,25.10
2022-09-22T12:10:32.699Z,25.20
2022-09-22T12:13:02.910Z,24.60
2022-09-22T12:18:58.802Z,24.60
2022-09-22T12:21:43.488Z,24.50
2022-09-22T18:05:27.101Z,24.40
2022-09-22T18:07:58.611Z,15.00
2022-09-22T18:13:04.405Z,14.40
2022-09-22T18:15:31.838Z,14.30
2022-09-22T18:17:59.084Z,14.30
2022-09-22T18:20:28.013Z,14.20
2022-09-22T18:22:58.983Z,14.10
2022-09-22T18:25:28.322Z,14.00
2022-09-22T18:27:56.448Z,13.90
2022-09-22T18:30:24.548Z,13.80
2022-09-22T18:32:54.484Z,13.70
2022-09-22T18:35:23.794Z,13.70
2022-09-22T18:37:52.919Z,13.60
2022-09-22T18:40:20.447Z,13.50
2022-09-22T18:42:48.432Z,13.40
2022-09-22T18:45:15.946Z,13.30
2022-09-22T18:47:44.578Z,13.30
2022-09-22T18:50:12.809Z,13.20
2022-09-22T18:52:43.357Z,13.10
2022-09-22T18:55:12.443Z,13.10
2022-09-22T18:57:39.724Z,13.00
2022-09-22T19:00:07.583Z,13.00
2022-09-22T19:02:34.965Z,12.90
2022-09-22T19:05:03.961Z,12.90
2022-09-22T19:07:43.235Z,12.80
2022-09-22T19:10:13.717Z,12.70
2022-09-22T19:12:41.663Z,12.70
2022-09-22T19:15:14.673Z,12.60
2022-09-22T19:17:45.934Z,12.50
2022-09-22T19:20:17.432Z,12.50
2022-09-22T19:22:47.283Z,12.40
2022-09-22T19:25:16.237Z,12.30
2022-09-22T19:27:46.393Z,12.30
2022-09-22T19:30:14.607Z,12.20
2022-09-22T19:32:43.067Z,12.10
2022-09-22T19:35:10.537Z,12.10
2022-09-22T19:37:38.755Z,12.00
2022-09-22T19:40:08.626Z,12.00
2022-09-22T19:42:39.996Z,12.00
2022-09-22T19:45:09.206Z,11.90
2022-09-22T19:47:41.742Z,11.90
2022-09-22T19:50:10.200Z,11.80
2022-09-22T19:52:38.684Z,11.80
2022-09-22T19:55:07.167Z,11.70
2022-09-22T19:57:38.614Z,11.70
2022-09-22T20:00:18.359Z,11.70
2022-09-22T20:02:45.839Z,11.60
2022-09-22T20:05:22.422Z,11.60
2022-09-22T20:07:50.233Z,11.50
2022-09-22T20:10:19.555Z,11.50
2022-09-22T20:12:50.682Z,11.50
2022-09-22T20:15:18.839Z,11.50
2022-09-22T20:17:47.301Z,11.40
2022-09-22T20:20:22.115Z,11.40
2022-09-22T20:23:01.693Z,11.30
2022-09-22T20:25:32.765Z,11.30
2022-09-22T20:28:00.767Z,11.30
2022-09-22T20:30:28.055Z,11.30
2022-09-22T20:32:56.028Z,11.20
2022-09-22T20:35:29.880Z,11.20
2022-09-22T20:37:58.566Z,11.10
2022-09-22T20:40:26.302Z,11.10
2022-09-22T20:42:55.024Z,11.00
2022-09-22T20:45:25.487Z,11.00
2022-09-22T20:47:56.282Z,11.00
2022-09-22T20:50:24.416Z,11.00
2022-09-22T20:52:52.965Z,11.00
2022-09-22T20:55:20.627Z,11.00
2022-09-22T20:57:47.793Z,11.00
2022-09-22T21:00:16.116Z,11.00
2022-09-22T21:02:43.648Z,11.00
2022-09-22T21:05:10.814Z,11.00
2022-09-22T21:07:38.347Z,11.00
2022-09-22T21:10:24.264Z,10.90
2022-09-22T21:12:55.405Z,11.00
2022-09-22T21:15:25.863Z,10.90
2022-09-22T21:17:55.494Z,10.90
2022-09-22T21:20:24.148Z,10.90
2022-09-22T21:22:54.847Z,10.80
2022-09-22T21:25:25.190Z,10.80
2022-09-22T21:27:53.797Z,10.80
2022-09-22T21:30:21.004Z,10.80
2022-09-22T21:32:50.165Z,10.80
2022-09-22T21:35:18.531Z,10.80
2022-09-22T21:37:45.661Z,10.80
2022-09-22T21:40:13.445Z,10.80
2022-09-22T21:42:40.585Z,10.80
2022-09-22T21:45:08.492Z,10.80
2022-09-22T21:47:35.696Z,10.70
2022-09-22T21:50:05.669Z,10.80
2022-09-22T21:52:32.837Z,10.70
2022-09-22T21:55:05.030Z,10.70
2022-09-22T21:57:32.222Z,10.70
2022-09-22T21:59:59.436Z,10.70
2022-09-22T22:02:26.732Z,10.70
2022-09-22T22:04:55.653Z,10.60
2022-09-22T22:07:23.485Z,10.60
2022-09-22T22:09:50.900Z,10.60
2022-09-22T22:12:23.852Z,10.60
2022-09-22T22:14:54.358Z,10.60
2022-09-22T22:17:21.951Z,10.60
2022-09-22T22:19:49.155Z,10.50
2022-09-22T22:22:19.127Z,10.50
2022-09-22T22:24:48.769Z,10.50
2022-09-22T22:27:17.305Z,10.50
2022-09-22T22:29:48.409Z,10.50
2022-09-22T22:32:15.621Z,10.40
2022-09-22T22:34:42.818Z,10.40
2022-09-22T22:37:10.923Z,10.40
2022-09-22T22:39:38.546Z,10.40
2022-09-22T22:42:06.583Z,10.30
2022-09-22T22:44:35.232Z,10.40
2022-09-22T22:47:02.357Z,10.30
2022-09-22T22:49:29.335Z,10.30
2022-09-22T22:51:56.881Z,10.30
2022-09-22T22:54:23.948Z,10.30
2022-09-22T22:56:53.517Z,10.20
2022-09-22T22:59:24.408Z,10.20
2022-09-22T23:01:52.724Z,10.20
2022-09-22T23:04:23.702Z,10.20
2022-09-22T23:06:52.312Z,10.20
2022-09-22T23:09:20.001Z,10.20
2022-09-22T23:11:47.639Z,10.20
2022-09-22T23:14:16.217Z,10.20
2022-09-22T23:16:46.057Z,10.10
2022-09-22T23:19:18.552Z,10.10
2022-09-22T23:21:47.077Z,10.10
2022-09-22T23:24:16.876Z,10.10
2022-09-22T23:26:45.933Z,10.00
2022-09-22T23:29:13.455Z,10.00
2022-09-22T23:31:40.605Z,10.00
2022-09-22T23:34:08.947Z,10.00
2022-09-22T23:36:36.816Z,10.00
2022-09-22T23:39:04.726Z,9.90
2022-09-22T23:41:34.389Z,9.90
2022-09-22T23:44:02.958Z,9.90
2022-09-22T23:46:30.433Z,9.90
2022-09-22T23:49:00.595Z,9.90
2022-09-22T23:51:28.116Z,10.00
2022-09-22T23:53:56.362Z,10.00
2022-09-22T23:56:24.863Z,10.00
2022-09-22T23:58:53.862Z,9.90
